sensor_id;sensor_type;location;lat;lon;timestamp;pressure;altitude;pressure_sealevel;temperature;humidity
72798;BME280;61084;55.816;37.036;2023-05-18T00:02:02;99963.34;;;12.70;48.21
72798;BME280;61084;55.816;37.036;2023-05-18T00:04:34;99970.56;;;12.67;48.35
72798;BME280;61084;55.816;37.036;2023-05-18T00:07:02;99966.22;;;12.66;48.40
72798;BME280;61084;55.816;37.036;2023-05-18T00:09:33;99974.22;;;12.64;48.75
72798;BME280;61084;55.816;37.036;2023-05-18T00:12:00;99973.44;;;12.62;48.34
72798;BME280;61084;55.816;37.036;2023-05-18T00:14:27;99970.97;;;12.59;48.80
72798;BME280;61084;55.816;37.036;2023-05-18T00:16:53;99972.13;;;12.54;48.60
72798;BME280;61084;55.816;37.036;2023-05-18T00:19:20;99978.50;;;12.50;49.02
72798;BME280;61084;55.816;37.036;2023-05-18T00:21:49;99976.00;;;12.47;48.98
72798;BME280;61084;55.816;37.036;2023-05-18T00:24:16;99980.75;;;12.40;49.21
72798;BME280;61084;55.816;37.036;2023-05-18T00:26:44;99973.94;;;12.36;49.57
72798;BME280;61084;55.816;37.036;2023-05-18T00:29:10;99980.28;;;12.32;49.29
72798;BME280;61084;55.816;37.036;2023-05-18T00:31:38;99983.06;;;12.29;49.29
72798;BME280;61084;55.816;37.036;2023-05-18T00:34:12;99985.88;;;12.26;49.87
72798;BME280;61084;55.816;37.036;2023-05-18T00:36:39;99990.41;;;12.23;49.96
72798;BME280;61084;55.816;37.036;2023-05-18T00:39:08;99990.50;;;12.21;49.99
72798;BME280;61084;55.816;37.036;2023-05-18T00:41:35;99991.41;;;12.20;50.50
72798;BME280;61084;55.816;37.036;2023-05-18T00:44:01;99984.69;;;12.15;49.90
72798;BME280;61084;55.816;37.036;2023-05-18T00:46:29;99988.41;;;12.10;49.38
72798;BME280;61084;55.816;37.036;2023-05-18T00:48:55;99989.41;;;12.08;49.90
72798;BME280;61084;55.816;37.036;2023-05-18T00:51:22;99989.53;;;12.05;50.00
72798;BME280;61084;55.816;37.036;2023-05-18T00:53:52;99990.56;;;12.02;50.28
72798;BME280;61084;55.816;37.036;2023-05-18T00:56:20;99980.97;;;12.01;49.62
72798;BME280;61084;55.816;37.036;2023-05-18T00:58:50;99982.81;;;11.99;49.62
72798;BME280;61084;55.816;37.036;2023-05-18T01:01:17;99985.59;;;11.96;49.77
72798;BME280;61084;55.816;37.036;2023-05-18T01:03:44;99984.00;;;11.94;50.18
72798;BME280;61084;55.816;37.036;2023-05-18T01:06:09;99984.03;;;11.92;49.98
72798;BME280;61084;55.816;37.036;2023-05-18T01:08:37;99981.41;;;11.92;49.95
72798;BME280;61084;55.816;37.036;2023-05-18T01:14:03;99975.28;;;11.92;50.47
72798;BME280;61084;55.816;37.036;2023-05-18T01:16:42;99974.59;;;11.88;50.58
72798;BME280;61084;55.816;37.036;2023-05-18T01:24:41;99973.19;;;11.81;51.17
72798;BME280;61084;55.816;37.036;2023-05-18T01:27:08;99984.72;;;11.79;50.78
72798;BME280;61084;55.816;37.036;2023-05-18T01:29:34;99979.53;;;11.77;51.17
72798;BME280;61084;55.816;37.036;2023-05-18T01:32:00;99986.66;;;11.75;50.55
72798;BME280;61084;55.816;37.036;2023-05-18T01:34:28;99986.72;;;11.74;50.67
72798;BME280;61084;55.816;37.036;2023-05-18T01:36:53;99980.63;;;11.73;51.08
72798;BME280;61084;55.816;37.036;2023-05-18T01:39:20;99982.31;;;11.74;50.92
72798;BME280;61084;55.816;37.036;2023-05-18T01:41:58;99984.03;;;11.75;51.61
72798;BME280;61084;55.816;37.036;2023-05-18T01:47:09;99984.78;;;11.77;51.10
72798;BME280;61084;55.816;37.036;2023-05-18T01:52:20;99979.75;;;11.73;51.57
72798;BME280;61084;55.816;37.036;2023-05-18T01:54:49;99987.66;;;11.73;51.69
72798;BME280;61084;55.816;37.036;2023-05-18T01:57:19;99987.66;;;11.73;51.69
72798;BME280;61084;55.816;37.036;2023-05-18T01:59:46;99992.91;;;11.73;51.65
72798;BME280;61084;55.816;37.036;2023-05-18T02:02:12;99979.84;;;11.71;52.02
72798;BME280;61084;55.816;37.036;2023-05-18T02:04:38;99985.88;;;11.73;52.15
72798;BME280;61084;55.816;37.036;2023-05-18T02:07:04;99983.16;;;11.75;51.79
72798;BME280;61084;55.816;37.036;2023-05-18T02:09:30;99982.16;;;11.77;52.02
72798;BME280;61084;55.816;37.036;2023-05-18T02:11:56;99983.66;;;11.83;52.28
72798;BME280;61084;55.816;37.036;2023-05-18T02:14:24;99981.72;;;11.86;52.38
72798;BME280;61084;55.816;37.036;2023-05-18T02:16:51;99986.75;;;11.91;52.25
72798;BME280;61084;55.816;37.036;2023-05-18T02:19:20;99992.72;;;11.94;52.05
72798;BME280;61084;55.816;37.036;2023-05-18T02:21:46;99996.84;;;12.00;52.28
72798;BME280;61084;55.816;37.036;2023-05-18T02:24:12;99998.31;;;12.05;52.91
72798;BME280;61084;55.816;37.036;2023-05-18T02:26:38;99998.06;;;12.10;52.88
72798;BME280;61084;55.816;37.036;2023-05-18T02:29:04;99993.50;;;12.13;52.96
72798;BME280;61084;55.816;37.036;2023-05-18T02:31:37;99990.41;;;12.23;52.77
72798;BME280;61084;55.816;37.036;2023-05-18T02:34:03;99995.22;;;12.32;52.79
72798;BME280;61084;55.816;37.036;2023-05-18T02:36:31;99988.59;;;12.42;52.81
72798;BME280;61084;55.816;37.036;2023-05-18T02:39:10;99995.06;;;12.52;53.38
72798;BME280;61084;55.816;37.036;2023-05-18T02:41:37;100008.69;;;12.60;53.20
72798;BME280;61084;55.816;37.036;2023-05-18T02:44:03;100002.31;;;12.64;53.51
72798;BME280;61084;55.816;37.036;2023-05-18T02:46:30;99999.31;;;12.71;53.43
72798;BME280;61084;55.816;37.036;2023-05-18T02:48:57;100003.25;;;12.80;54.38
72798;BME280;61084;55.816;37.036;2023-05-18T02:51:23;99998.34;;;12.90;53.68
72798;BME280;61084;55.816;37.036;2023-05-18T02:53:49;99999.56;;;13.00;53.98
72798;BME280;61084;55.816;37.036;2023-05-18T02:56:16;99992.06;;;13.09;53.17
72798;BME280;61084;55.816;37.036;2023-05-18T02:58:53;99994.13;;;13.20;53.49
72798;BME280;61084;55.816;37.036;2023-05-18T03:01:42;99997.19;;;13.28;53.91
72798;BME280;61084;55.816;37.036;2023-05-18T03:04:09;99993.94;;;13.38;53.34
72798;BME280;61084;55.816;37.036;2023-05-18T03:06:39;99990.66;;;13.50;53.52
72798;BME280;61084;55.816;37.036;2023-05-18T03:09:05;99993.63;;;13.60;53.28
72798;BME280;61084;55.816;37.036;2023-05-18T03:11:37;99988.59;;;13.71;53.54
72798;BME280;61084;55.816;37.036;2023-05-18T03:14:03;99988.94;;;13.81;53.50
72798;BME280;61084;55.816;37.036;2023-05-18T03:16:29;99992.66;;;13.92;53.63
72798;BME280;61084;55.816;37.036;2023-05-18T03:18:55;99996.47;;;14.02;53.39
72798;BME280;61084;55.816;37.036;2023-05-18T03:21:32;99992.25;;;14.14;53.45
72798;BME280;61084;55.816;37.036;2023-05-18T03:24:01;99996.75;;;14.27;53.32
72798;BME280;61084;55.816;37.036;2023-05-18T03:26:29;99996.75;;;14.43;52.87
72798;BME280;61084;55.816;37.036;2023-05-18T03:28:56;99995.94;;;14.57;52.57
72798;BME280;61084;55.816;37.036;2023-05-18T03:31:22;99994.91;;;14.73;52.00
72798;BME280;61084;55.816;37.036;2023-05-18T03:33:49;99991.44;;;14.87;52.95
72798;BME280;61084;55.816;37.036;2023-05-18T03:36:15;99991.44;;;15.01;51.42
72798;BME280;61084;55.816;37.036;2023-05-18T03:38:42;99991.53;;;15.14;51.14
72798;BME280;61084;55.816;37.036;2023-05-18T03:41:11;99989.06;;;15.25;50.54
72798;BME280;61084;55.816;37.036;2023-05-18T03:43:37;99990.94;;;15.37;50.58
72798;BME280;61084;55.816;37.036;2023-05-18T03:46:03;99992.19;;;15.45;49.69
72798;BME280;61084;55.816;37.036;2023-05-18T03:48:29;100002.09;;;15.56;49.94
72798;BME280;61084;55.816;37.036;2023-05-18T03:50:55;99997.72;;;15.69;49.86
72798;BME280;61084;55.816;37.036;2023-05-18T03:53:40;99987.41;;;15.78;49.98
72798;BME280;61084;55.816;37.036;2023-05-18T03:56:07;99998.88;;;15.92;49.69
72798;BME280;61084;55.816;37.036;2023-05-18T03:58:33;99994.47;;;16.05;49.56
72798;BME280;61084;55.816;37.036;2023-05-18T04:00:59;99991.75;;;16.19;48.93
72798;BME280;61084;55.816;37.036;2023-05-18T04:03:26;99999.09;;;16.28;49.09
72798;BME280;61084;55.816;37.036;2023-05-18T04:05:52;100002.94;;;16.36;48.40
72798;BME280;61084;55.816;37.036;2023-05-18T04:08:37;99993.31;;;16.48;48.88
72798;BME280;61084;55.816;37.036;2023-05-18T04:11:02;99991.56;;;16.61;48.69
72798;BME280;61084;55.816;37.036;2023-05-18T04:13:29;99992.31;;;16.76;48.53
72798;BME280;61084;55.816;37.036;2023-05-18T04:15:56;99995.50;;;16.93;48.85
72798;BME280;61084;55.816;37.036;2023-05-18T04:18:23;99995.28;;;17.09;48.59
72798;BME280;61084;55.816;37.036;2023-05-18T04:20:49;99992.50;;;17.23;48.43
72798;BME280;61084;55.816;37.036;2023-05-18T04:23:16;100003.84;;;17.38;48.35
72798;BME280;61084;55.816;37.036;2023-05-18T04:25:42;99997.88;;;17.47;48.17
72798;BME280;61084;55.816;37.036;2023-05-18T04:28:08;100001.38;;;17.60;48.68
72798;BME280;61084;55.816;37.036;2023-05-18T04:30:35;100007.28;;;17.76;47.66
72798;BME280;61084;55.816;37.036;2023-05-18T04:33:02;100003.50;;;17.91;47.52
72798;BME280;61084;55.816;37.036;2023-05-18T04:35:28;99999.59;;;18.07;47.63
72798;BME280;61084;55.816;37.036;2023-05-18T04:37:56;100001.88;;;18.25;47.20
72798;BME280;61084;55.816;37.036;2023-05-18T04:40:22;99997.22;;;18.39;47.06
72798;BME280;61084;55.816;37.036;2023-05-18T04:42:50;99991.63;;;18.55;46.91
72798;BME280;61084;55.816;37.036;2023-05-18T04:45:19;99989.72;;;18.68;46.26
72798;BME280;61084;55.816;37.036;2023-05-18T04:47:47;99994.94;;;18.80;46.34
72798;BME280;61084;55.816;37.036;2023-05-18T04:50:18;99993.59;;;18.97;46.29
72798;BME280;61084;55.816;37.036;2023-05-18T04:52:47;99987.00;;;19.14;46.37
72798;BME280;61084;55.816;37.036;2023-05-18T04:55:20;99988.19;;;19.32;45.90
72798;BME280;61084;55.816;37.036;2023-05-18T04:57:56;99987.72;;;19.49;45.71
72798;BME280;61084;55.816;37.036;2023-05-18T05:00:22;99982.84;;;19.65;46.09
72798;BME280;61084;55.816;37.036;2023-05-18T05:02:49;99991.31;;;19.81;45.18
72798;BME280;61084;55.816;37.036;2023-05-18T05:05:16;99979.97;;;20.00;45.23
72798;BME280;61084;55.816;37.036;2023-05-18T05:07:43;99982.94;;;20.17;44.53
72798;BME280;61084;55.816;37.036;2023-05-18T05:10:09;99983.13;;;20.37;44.48
72798;BME280;61084;55.816;37.036;2023-05-18T05:12:36;99988.72;;;20.54;44.03
72798;BME280;61084;55.816;37.036;2023-05-18T05:15:04;99979.44;;;20.69;44.01
72798;BME280;61084;55.816;37.036;2023-05-18T05:17:32;99980.63;;;20.86;43.92
72798;BME280;61084;55.816;37.036;2023-05-18T05:19:58;99982.97;;;21.00;43.60
72798;BME280;61084;55.816;37.036;2023-05-18T05:22:24;99985.47;;;21.13;43.25
72798;BME280;61084;55.816;37.036;2023-05-18T05:24:51;99980.75;;;21.26;42.77
72798;BME280;61084;55.816;37.036;2023-05-18T05:27:19;99990.63;;;21.35;42.37
72798;BME280;61084;55.816;37.036;2023-05-18T05:29:45;99984.78;;;21.50;42.52
72798;BME280;61084;55.816;37.036;2023-05-18T05:32:12;99983.13;;;21.68;42.17
72798;BME280;61084;55.816;37.036;2023-05-18T05:34:39;99991.50;;;21.85;41.83
72798;BME280;61084;55.816;37.036;2023-05-18T05:37:06;99985.03;;;21.97;41.58
72798;BME280;61084;55.816;37.036;2023-05-18T05:39:31;99989.13;;;22.10;41.01
72798;BME280;61084;55.816;37.036;2023-05-18T05:41:58;99988.31;;;22.19;40.75
72798;BME280;61084;55.816;37.036;2023-05-18T05:44:24;99983.94;;;22.28;40.60
72798;BME280;61084;55.816;37.036;2023-05-18T05:46:50;99987.88;;;22.43;40.76
72798;BME280;61084;55.816;37.036;2023-05-18T05:49:17;99980.84;;;22.61;40.67
72798;BME280;61084;55.816;37.036;2023-05-18T05:51:43;99979.41;;;22.76;40.58
72798;BME280;61084;55.816;37.036;2023-05-18T05:54:09;99988.41;;;22.94;40.59
72798;BME280;61084;55.816;37.036;2023-05-18T05:56:35;99986.78;;;23.11;40.11
72798;BME280;61084;55.816;37.036;2023-05-18T05:59:02;99982.66;;;23.26;39.77
72798;BME280;61084;55.816;37.036;2023-05-18T06:01:28;99983.19;;;23.39;39.81
72798;BME280;61084;55.816;37.036;2023-05-18T06:03:55;99981.16;;;23.51;39.59
72798;BME280;61084;55.816;37.036;2023-05-18T06:06:22;99984.19;;;23.65;39.14
72798;BME280;61084;55.816;37.036;2023-05-18T06:08:47;99976.09;;;23.75;38.86
72798;BME280;61084;55.816;37.036;2023-05-18T06:11:16;99979.72;;;23.83;38.20
72798;BME280;61084;55.816;37.036;2023-05-18T06:13:41;99967.22;;;23.92;37.94
72798;BME280;61084;55.816;37.036;2023-05-18T06:16:07;99973.19;;;24.04;37.35
72798;BME280;61084;55.816;37.036;2023-05-18T06:18:35;99976.00;;;24.12;37.60
72798;BME280;61084;55.816;37.036;2023-05-18T06:21:03;99975.00;;;24.30;37.74
72798;BME280;61084;55.816;37.036;2023-05-18T06:23:29;99969.22;;;24.43;37.47
72798;BME280;61084;55.816;37.036;2023-05-18T06:26:01;99970.34;;;24.58;37.57
72798;BME280;61084;55.816;37.036;2023-05-18T06:28:53;99976.75;;;24.75;36.99
72798;BME280;61084;55.816;37.036;2023-05-18T06:31:42;99973.25;;;24.82;36.33
72798;BME280;61084;55.816;37.036;2023-05-18T06:34:18;99963.75;;;24.88;34.88
72798;BME280;61084;55.816;37.036;2023-05-18T06:36:44;99968.50;;;25.02;36.58
72798;BME280;61084;55.816;37.036;2023-05-18T06:39:11;99972.16;;;25.18;35.90
72798;BME280;61084;55.816;37.036;2023-05-18T06:41:37;99969.28;;;25.20;34.81
72798;BME280;61084;55.816;37.036;2023-05-18T06:44:02;99967.66;;;25.27;34.82
72798;BME280;61084;55.816;37.036;2023-05-18T06:46:34;99976.50;;;25.45;35.03
72798;BME280;61084;55.816;37.036;2023-05-18T06:49:02;99971.50;;;25.58;34.82
72798;BME280;61084;55.816;37.036;2023-05-18T06:51:29;99975.91;;;25.67;34.19
72798;BME280;61084;55.816;37.036;2023-05-18T06:53:58;99973.41;;;25.74;33.98
72798;BME280;61084;55.816;37.036;2023-05-18T06:56:24;99973.22;;;25.75;34.08
72798;BME280;61084;55.816;37.036;2023-05-18T06:58:51;99972.44;;;25.83;32.87
72798;BME280;61084;55.816;37.036;2023-05-18T07:01:17;99975.00;;;25.92;33.57
72798;BME280;61084;55.816;37.036;2023-05-18T07:03:44;99970.66;;;26.07;33.06
72798;BME280;61084;55.816;37.036;2023-05-18T07:06:10;99974.03;;;26.17;33.00
72798;BME280;61084;55.816;37.036;2023-05-18T07:08:36;99976.25;;;26.30;31.00
72798;BME280;61084;55.816;37.036;2023-05-18T07:11:02;99969.81;;;26.23;30.55
72798;BME280;61084;55.816;37.036;2023-05-18T07:13:29;99975.91;;;26.33;32.08
72798;BME280;61084;55.816;37.036;2023-05-18T07:15:55;99975.41;;;26.38;31.21
72798;BME280;61084;55.816;37.036;2023-05-18T07:18:21;99978.28;;;26.44;32.41
72798;BME280;61084;55.816;37.036;2023-05-18T07:20:46;99983.47;;;26.54;32.19
72798;BME280;61084;55.816;37.036;2023-05-18T07:23:12;99978.94;;;26.62;30.63
72798;BME280;61084;55.816;37.036;2023-05-18T07:25:38;99977.63;;;26.74;31.23
72798;BME280;61084;55.816;37.036;2023-05-18T07:28:04;99980.28;;;26.99;29.91
72798;BME280;61084;55.816;37.036;2023-05-18T07:30:30;99977.72;;;27.13;31.65
72798;BME280;61084;55.816;37.036;2023-05-18T07:32:56;99979.72;;;27.27;31.26
72798;BME280;61084;55.816;37.036;2023-05-18T07:35:22;99979.06;;;27.09;29.13
72798;BME280;61084;55.816;37.036;2023-05-18T07:37:49;99980.59;;;27.12;31.07
72798;BME280;61084;55.816;37.036;2023-05-18T07:40:16;99981.72;;;27.25;31.42
72798;BME280;61084;55.816;37.036;2023-05-18T07:42:43;99977.00;;;27.19;31.24
72798;BME280;61084;55.816;37.036;2023-05-18T07:45:08;99982.63;;;27.02;29.54
72798;BME280;61084;55.816;37.036;2023-05-18T07:47:53;99977.94;;;26.87;30.19
72798;BME280;61084;55.816;37.036;2023-05-18T07:50:18;99980.66;;;26.79;29.63
72798;BME280;61084;55.816;37.036;2023-05-18T07:52:44;99975.41;;;26.70;30.75
72798;BME280;61084;55.816;37.036;2023-05-18T07:55:10;99982.97;;;26.58;30.45
72798;BME280;61084;55.816;37.036;2023-05-18T07:57:36;99976.75;;;26.50;29.91
72798;BME280;61084;55.816;37.036;2023-05-18T08:00:03;99974.56;;;26.45;31.15
72798;BME280;61084;55.816;37.036;2023-05-18T08:02:38;99980.81;;;26.38;31.21
72798;BME280;61084;55.816;37.036;2023-05-18T08:05:04;99989.38;;;26.33;30.60
72798;BME280;61084;55.816;37.036;2023-05-18T08:07:31;99979.59;;;26.32;31.11
72798;BME280;61084;55.816;37.036;2023-05-18T08:12:42;99980.78;;;26.22;30.83
72798;BME280;61084;55.816;37.036;2023-05-18T08:15:08;99981.44;;;26.24;30.77
72798;BME280;61084;55.816;37.036;2023-05-18T08:17:34;99989.53;;;26.24;30.93
72798;BME280;61084;55.816;37.036;2023-05-18T08:20:00;99982.63;;;26.13;30.79
72798;BME280;61084;55.816;37.036;2023-05-18T08:22:30;99977.72;;;26.08;31.51
72798;BME280;61084;55.816;37.036;2023-05-18T08:24:56;99977.03;;;26.06;30.63
72798;BME280;61084;55.816;37.036;2023-05-18T08:27:25;99973.47;;;26.06;30.82
72798;BME280;61084;55.816;37.036;2023-05-18T08:29:51;99980.03;;;26.03;30.87
72798;BME280;61084;55.816;37.036;2023-05-18T08:32:17;99970.47;;;26.01;31.26
72798;BME280;61084;55.816;37.036;2023-05-18T08:34:42;99965.91;;;26.01;32.20
72798;BME280;61084;55.816;37.036;2023-05-18T08:37:08;99973.47;;;26.06;32.46
72798;BME280;61084;55.816;37.036;2023-05-18T08:39:34;99964.13;;;26.26;31.86
72798;BME280;61084;55.816;37.036;2023-05-18T08:42:21;99966.50;;;26.37;31.87
72798;BME280;61084;55.816;37.036;2023-05-18T08:45:10;99957.56;;;26.53;31.35
72798;BME280;61084;55.816;37.036;2023-05-18T08:47:37;99962.13;;;26.76;31.27
72798;BME280;61084;55.816;37.036;2023-05-18T08:50:04;99959.94;;;26.88;30.62
72798;BME280;61084;55.816;37.036;2023-05-18T08:52:34;99961.75;;;26.96;30.24
72798;BME280;61084;55.816;37.036;2023-05-18T08:55:05;99957.69;;;27.08;29.68
72798;BME280;61084;55.816;37.036;2023-05-18T08:57:35;99955.78;;;27.24;30.26
72798;BME280;61084;55.816;37.036;2023-05-18T09:00:02;99952.50;;;27.45;30.44
72798;BME280;61084;55.816;37.036;2023-05-18T09:02:32;99964.94;;;27.54;29.88
72798;BME280;61084;55.816;37.036;2023-05-18T09:04:59;99956.47;;;27.65;29.70
72798;BME280;61084;55.816;37.036;2023-05-18T09:07:25;99956.72;;;27.78;30.25
72798;BME280;61084;55.816;37.036;2023-05-18T09:09:54;99946.69;;;27.95;29.93
72798;BME280;61084;55.816;37.036;2023-05-18T09:12:22;99952.19;;;28.09;29.41
72798;BME280;61084;55.816;37.036;2023-05-18T09:14:48;99942.47;;;28.23;29.38
72798;BME280;61084;55.816;37.036;2023-05-18T09:17:14;99948.28;;;28.34;29.45
72798;BME280;61084;55.816;37.036;2023-05-18T09:19:40;99945.56;;;28.34;29.00
72798;BME280;61084;55.816;37.036;2023-05-18T09:22:05;99942.63;;;28.44;27.76
72798;BME280;61084;55.816;37.036;2023-05-18T09:24:32;99942.56;;;28.52;29.45
72798;BME280;61084;55.816;37.036;2023-05-18T09:26:58;99940.34;;;28.56;28.83
72798;BME280;61084;55.816;37.036;2023-05-18T09:29:24;99942.56;;;28.75;28.44
72798;BME280;61084;55.816;37.036;2023-05-18T09:31:50;99938.56;;;28.85;27.83
72798;BME280;61084;55.816;37.036;2023-05-18T09:34:17;99949.38;;;28.85;28.06
72798;BME280;61084;55.816;37.036;2023-05-18T09:36:48;99946.19;;;28.82;27.31
72798;BME280;61084;55.816;37.036;2023-05-18T09:39:17;99943.66;;;28.66;27.74
72798;BME280;61084;55.816;37.036;2023-05-18T09:41:43;99941.03;;;28.58;27.29
72798;BME280;61084;55.816;37.036;2023-05-18T09:44:09;99949.16;;;28.50;27.47
72798;BME280;61084;55.816;37.036;2023-05-18T09:46:40;99941.25;;;28.48;26.85
72798;BME280;61084;55.816;37.036;2023-05-18T09:49:06;99950.09;;;28.42;27.33
72798;BME280;61084;55.816;37.036;2023-05-18T09:51:36;99954.81;;;28.40;27.33
72798;BME280;61084;55.816;37.036;2023-05-18T09:54:03;99956.75;;;28.31;27.59
72798;BME280;61084;55.816;37.036;2023-05-18T09:56:34;99950.75;;;28.21;27.36
72798;BME280;61084;55.816;37.036;2023-05-18T09:59:12;99949.31;;;28.11;27.61
72798;BME280;61084;55.816;37.036;2023-05-18T10:02:05;99952.75;;;27.97;28.22
72798;BME280;61084;55.816;37.036;2023-05-18T10:04:37;99959.69;;;27.91;28.04
72798;BME280;61084;55.816;37.036;2023-05-18T10:07:14;99959.22;;;27.88;28.15
72798;BME280;61084;55.816;37.036;2023-05-18T10:09:41;99956.69;;;27.86;28.33
72798;BME280;61084;55.816;37.036;2023-05-18T10:12:14;99946.91;;;27.85;28.07
72798;BME280;61084;55.816;37.036;2023-05-18T10:14:42;99940.25;;;27.96;28.55
72798;BME280;61084;55.816;37.036;2023-05-18T10:17:10;99945.06;;;28.16;28.03
72798;BME280;61084;55.816;37.036;2023-05-18T10:19:39;99945.28;;;28.29;28.25
72798;BME280;61084;55.816;37.036;2023-05-18T10:22:05;99932.25;;;28.33;27.83
72798;BME280;61084;55.816;37.036;2023-05-18T10:24:34;99939.19;;;28.50;27.82
72798;BME280;61084;55.816;37.036;2023-05-18T10:27:07;99941.69;;;28.60;27.58
72798;BME280;61084;55.816;37.036;2023-05-18T10:29:37;99941.97;;;28.65;27.83
72798;BME280;61084;55.816;37.036;2023-05-18T10:32:04;99939.19;;;28.73;27.49
72798;BME280;61084;55.816;37.036;2023-05-18T10:34:31;99937.50;;;28.72;26.88
72798;BME280;61084;55.816;37.036;2023-05-18T10:37:00;99932.66;;;28.82;27.26
72798;BME280;61084;55.816;37.036;2023-05-18T10:39:34;99940.13;;;28.80;27.35
72798;BME280;61084;55.816;37.036;2023-05-18T10:42:03;99940.97;;;28.80;27.48
72798;BME280;61084;55.816;37.036;2023-05-18T10:44:30;99933.41;;;28.76;27.18
72798;BME280;61084;55.816;37.036;2023-05-18T10:46:57;99931.25;;;28.71;26.65
72798;BME280;61084;55.816;37.036;2023-05-18T10:49:24;99931.09;;;28.73;27.17
72798;BME280;61084;55.816;37.036;2023-05-18T10:51:53;99926.69;;;28.86;27.28
72798;BME280;61084;55.816;37.036;2023-05-18T10:54:21;99920.38;;;28.94;27.21
72798;BME280;61084;55.816;37.036;2023-05-18T10:56:51;99925.88;;;29.00;27.11
72798;BME280;61084;55.816;37.036;2023-05-18T10:59:19;99924.75;;;28.95;26.39
72798;BME280;61084;55.816;37.036;2023-05-18T11:01:49;99918.31;;;28.81;26.32
72798;BME280;61084;55.816;37.036;2023-05-18T11:04:21;99926.13;;;28.76;26.64
72798;BME280;61084;55.816;37.036;2023-05-18T11:06:53;99922.03;;;28.80;26.69
72798;BME280;61084;55.816;37.036;2023-05-18T11:09:22;99918.22;;;29.04;27.22
72798;BME280;61084;55.816;37.036;2023-05-18T11:11:53;99917.03;;;29.21;26.96
72798;BME280;61084;55.816;37.036;2023-05-18T11:14:28;99919.56;;;29.37;26.15
72798;BME280;61084;55.816;37.036;2023-05-18T11:27:52;99916.97;;;29.29;26.47
72798;BME280;61084;55.816;37.036;2023-05-18T11:33:10;99911.63;;;29.21;26.60
72798;BME280;61084;55.816;37.036;2023-05-18T11:36:05;99906.94;;;29.15;26.52
72798;BME280;61084;55.816;37.036;2023-05-18T11:39:04;99900.50;;;29.01;26.99
72798;BME280;61084;55.816;37.036;2023-05-18T11:41:39;99904.72;;;28.89;26.48
72798;BME280;61084;55.816;37.036;2023-05-18T11:44:22;99901.34;;;28.73;25.73
72798;BME280;61084;55.816;37.036;2023-05-18T11:46:54;99905.72;;;28.74;26.84
72798;BME280;61084;55.816;37.036;2023-05-18T11:49:23;99895.94;;;28.73;26.57
72798;BME280;61084;55.816;37.036;2023-05-18T11:54:54;99895.84;;;28.66;27.64
72798;BME280;61084;55.816;37.036;2023-05-18T11:57:24;99911.03;;;28.67;28.00
72798;BME280;61084;55.816;37.036;2023-05-18T11:59:57;99906.13;;;28.71;27.73
72798;BME280;61084;55.816;37.036;2023-05-18T12:02:25;99906.94;;;28.71;27.92
72798;BME280;61084;55.816;37.036;2023-05-18T12:04:53;99905.72;;;28.74;27.69
72798;BME280;61084;55.816;37.036;2023-05-18T12:07:20;99904.13;;;28.65;27.11
72798;BME280;61084;55.816;37.036;2023-05-18T12:09:47;99905.91;;;28.58;27.09
72798;BME280;61084;55.816;37.036;2023-05-18T12:12:15;99906.41;;;28.53;26.20
72798;BME280;61084;55.816;37.036;2023-05-18T12:14:46;99906.78;;;28.50;26.99
72798;BME280;61084;55.816;37.036;2023-05-18T12:17:14;99901.63;;;28.41;26.82
72798;BME280;61084;55.816;37.036;2023-05-18T12:19:46;99900.16;;;28.38;27.30
72798;BME280;61084;55.816;37.036;2023-05-18T12:22:13;99901.91;;;28.46;27.11
72798;BME280;61084;55.816;37.036;2023-05-18T12:24:40;99900.59;;;28.64;27.29
72798;BME280;61084;55.816;37.036;2023-05-18T12:27:08;99902.47;;;28.93;27.00
72798;BME280;61084;55.816;37.036;2023-05-18T12:29:38;99903.88;;;29.03;26.35
72798;BME280;61084;55.816;37.036;2023-05-18T12:32:09;99899.94;;;29.06;26.65
72798;BME280;61084;55.816;37.036;2023-05-18T12:34:36;99896.97;;;29.16;27.07
72798;BME280;61084;55.816;37.036;2023-05-18T12:37:02;99907.91;;;29.22;26.57
72798;BME280;61084;55.816;37.036;2023-05-18T12:39:28;99899.44;;;29.25;25.50
72798;BME280;61084;55.816;37.036;2023-05-18T12:42:07;99898.19;;;29.28;26.60
72798;BME280;61084;55.816;37.036;2023-05-18T12:44:33;99894.06;;;29.46;26.83
72798;BME280;61084;55.816;37.036;2023-05-18T12:46:58;99906.06;;;29.58;27.05
72798;BME280;61084;55.816;37.036;2023-05-18T12:49:24;99907.63;;;29.67;26.90
72798;BME280;61084;55.816;37.036;2023-05-18T12:51:53;99902.50;;;29.72;27.33
72798;BME280;61084;55.816;37.036;2023-05-18T12:54:26;99895.31;;;29.65;26.87
72798;BME280;61084;55.816;37.036;2023-05-18T12:56:54;99906.56;;;29.47;27.37
72798;BME280;61084;55.816;37.036;2023-05-18T12:59:27;99899.59;;;29.38;27.74
72798;BME280;61084;55.816;37.036;2023-05-18T13:01:53;99904.66;;;29.27;27.91
72798;BME280;61084;55.816;37.036;2023-05-18T13:04:19;99899.59;;;29.24;28.26
72798;BME280;61084;55.816;37.036;2023-05-18T13:06:45;99902.06;;;29.19;28.26
72798;BME280;61084;55.816;37.036;2023-05-18T13:09:13;99899.59;;;29.09;28.52
72798;BME280;61084;55.816;37.036;2023-05-18T13:11:39;99902.56;;;28.99;28.83
72798;BME280;61084;55.816;37.036;2023-05-18T13:14:07;99897.25;;;29.06;28.93
72798;BME280;61084;55.816;37.036;2023-05-18T13:16:43;99890.44;;;28.95;28.85
72798;BME280;61084;55.816;37.036;2023-05-18T13:19:09;99902.56;;;28.85;28.97
72798;BME280;61084;55.816;37.036;2023-05-18T13:21:36;99904.63;;;28.83;29.57
72798;BME280;61084;55.816;37.036;2023-05-18T13:24:03;99900.50;;;28.87;29.05
72798;BME280;61084;55.816;37.036;2023-05-18T13:26:29;99905.53;;;28.75;29.37
72798;BME280;61084;55.816;37.036;2023-05-18T13:28:56;99906.03;;;28.56;29.41
72798;BME280;61084;55.816;37.036;2023-05-18T13:31:22;99906.09;;;28.33;29.23